sensor_id;sensor_type;location;lat;lon;timestamp;pressure;altitude;pressure_sealevel;temperature;humidity
48364;BME280;34170;54.364;18.582;2023-03-21T00:02:09;99993.38;;;8.89;100.00
48364;BME280;34170;54.364;18.582;2023-03-21T00:04:37;99977.66;;;8.26;100.00
48364;BME280;34170;54.364;18.582;2023-03-21T00:07:18;99975.31;;;8.52;100.00
48364;BME280;34170;54.364;18.582;2023-03-21T00:09:45;99970.97;;;8.61;100.00
48364;BME280;34170;54.364;18.582;2023-03-21T00:12:12;99966.59;;;8.50;100.00
48364;BME280;34170;54.364;18.582;2023-03-21T00:14:40;99980.97;;;8.78;100.00
48364;BME280;34170;54.364;18.582;2023-03-21T00:17:08;99971.06;;;8.49;100.00
48364;BME280;34170;54.364;18.582;2023-03-21T00:19:37;99966.03;;;8.66;100.00
48364;BME280;34170;54.364;18.582;2023-03-21T00:22:07;99972.94;;;8.58;100.00
48364;BME280;34170;54.364;18.582;2023-03-21T00:24:35;99966.59;;;8.79;100.00
48364;BME280;34170;54.364;18.582;2023-03-21T00:27:03;99964.63;;;8.91;100.00
48364;BME280;34170;54.364;18.582;2023-03-21T00:29:54;99961.06;;;8.90;100.00
48364;BME280;34170;54.364;18.582;2023-03-21T00:32:21;99953.16;;;8.99;100.00
48364;BME280;34170;54.364;18.582;2023-03-21T00:34:49;99956.00;;;9.07;100.00
48364;BME280;34170;54.364;18.582;2023-03-21T00:37:37;99963.44;;;9.13;100.00
48364;BME280;34170;54.364;18.582;2023-03-21T00:40:05;99959.47;;;9.17;100.00
48364;BME280;34170;54.364;18.582;2023-03-21T00:42:45;99953.31;;;8.97;100.00
48364;BME280;34170;54.364;18.582;2023-03-21T00:45:13;99971.06;;;9.08;100.00
48364;BME280;34170;54.364;18.582;2023-03-21T00:47:42;99969.69;;;9.04;100.00
48364;BME280;34170;54.364;18.582;2023-03-21T00:50:11;99962.78;;;8.91;100.00
48364;BME280;34170;54.364;18.582;2023-03-21T00:52:38;99966.28;;;8.92;100.00
48364;BME280;34170;54.364;18.582;2023-03-21T00:55:13;99958.09;;;9.03;100.00
48364;BME280;34170;54.364;18.582;2023-03-21T00:57:40;99969.53;;;8.95;100.00
48364;BME280;34170;54.364;18.582;2023-03-21T01:00:14;99972.22;;;9.05;100.00
48364;BME280;34170;54.364;18.582;2023-03-21T01:02:42;99968.13;;;8.82;100.00
48364;BME280;34170;54.364;18.582;2023-03-21T01:05:45;99959.38;;;9.09;100.00
48364;BME280;34170;54.364;18.582;2023-03-21T01:08:37;99962.63;;;8.93;100.00
48364;BME280;34170;54.364;18.582;2023-03-21T01:11:20;99967.44;;;8.70;100.00
48364;BME280;34170;54.364;18.582;2023-03-21T01:13:49;99966.16;;;8.74;100.00
48364;BME280;34170;54.364;18.582;2023-03-21T01:16:28;99958.81;;;8.76;100.00
48364;BME280;34170;54.364;18.582;2023-03-21T01:18:56;99963.47;;;8.93;100.00
48364;BME280;34170;54.364;18.582;2023-03-21T01:21:24;99966.84;;;9.05;100.00
48364;BME280;34170;54.364;18.582;2023-03-21T01:23:51;99968.78;;;9.23;100.00
48364;BME280;34170;54.364;18.582;2023-03-21T01:26:19;99960.19;;;9.09;100.00
48364;BME280;34170;54.364;18.582;2023-03-21T01:28:46;99966.13;;;9.13;100.00
48364;BME280;34170;54.364;18.582;2023-03-21T01:31:15;99965.44;;;9.11;100.00
48364;BME280;34170;54.364;18.582;2023-03-21T01:33:43;99970.75;;;9.21;100.00
48364;BME280;34170;54.364;18.582;2023-03-21T01:36:19;99966.53;;;9.18;100.00
48364;BME280;34170;54.364;18.582;2023-03-21T01:38:52;99960.31;;;9.27;100.00
48364;BME280;34170;54.364;18.582;2023-03-21T01:41:27;99965.22;;;9.42;100.00
48364;BME280;34170;54.364;18.582;2023-03-21T01:44:18;99961.13;;;9.38;100.00
48364;BME280;34170;54.364;18.582;2023-03-21T01:46:48;99963.72;;;9.20;100.00
48364;BME280;34170;54.364;18.582;2023-03-21T01:49:48;99960.66;;;8.66;100.00
48364;BME280;34170;54.364;18.582;2023-03-21T01:52:31;99972.78;;;8.80;100.00
48364;BME280;34170;54.364;18.582;2023-03-21T01:55:14;99955.88;;;8.69;100.00
48364;BME280;34170;54.364;18.582;2023-03-21T01:57:56;99966.59;;;8.79;100.00
48364;BME280;34170;54.364;18.582;2023-03-21T02:00:52;99971.50;;;8.74;100.00
48364;BME280;34170;54.364;18.582;2023-03-21T02:03:34;99966.00;;;8.56;100.00
48364;BME280;34170;54.364;18.582;2023-03-21T02:06:30;99971.66;;;8.82;100.00
48364;BME280;34170;54.364;18.582;2023-03-21T02:09:11;99981.25;;;8.94;100.00
48364;BME280;34170;54.364;18.582;2023-03-21T02:11:40;99989.44;;;8.64;100.00
48364;BME280;34170;54.364;18.582;2023-03-21T02:14:16;99980.91;;;8.29;100.00
48364;BME280;34170;54.364;18.582;2023-03-21T02:17:13;99982.53;;;8.51;100.00
48364;BME280;34170;54.364;18.582;2023-03-21T02:22:51;99978.41;;;8.47;100.00
48364;BME280;34170;54.364;18.582;2023-03-21T02:28:40;99971.84;;;8.20;100.00
48364;BME280;34170;54.364;18.582;2023-03-21T02:36:45;99987.47;;;8.66;100.00
48364;BME280;34170;54.364;18.582;2023-03-21T02:39:20;99992.25;;;8.52;100.00
48364;BME280;34170;54.364;18.582;2023-03-21T02:42:13;99989.72;;;8.70;100.00
48364;BME280;34170;54.364;18.582;2023-03-21T02:44:51;99990.91;;;8.37;100.00
48364;BME280;34170;54.364;18.582;2023-03-21T02:47:28;99988.16;;;8.58;100.00
48364;BME280;34170;54.364;18.582;2023-03-21T02:50:04;99994.59;;;8.36;100.00
48364;BME280;34170;54.364;18.582;2023-03-21T02:52:37;99983.13;;;8.24;100.00
48364;BME280;34170;54.364;18.582;2023-03-21T02:55:13;99987.38;;;8.27;100.00
48364;BME280;34170;54.364;18.582;2023-03-21T02:57:56;99981.97;;;8.07;100.00
48364;BME280;34170;54.364;18.582;2023-03-21T03:00:39;99994.53;;;8.16;100.00
48364;BME280;34170;54.364;18.582;2023-03-21T03:03:13;99990.50;;;8.32;100.00
48364;BME280;34170;54.364;18.582;2023-03-21T03:05:59;99987.47;;;8.46;100.00
48364;BME280;34170;54.364;18.582;2023-03-21T03:11:34;99991.78;;;8.37;100.00
48364;BME280;34170;54.364;18.582;2023-03-21T03:20:04;100000.84;;;8.56;98.45
48364;BME280;34170;54.364;18.582;2023-03-21T03:25:24;100005.75;;;8.41;97.83
48364;BME280;34170;54.364;18.582;2023-03-21T03:28:10;99999.25;;;8.34;97.61
48364;BME280;34170;54.364;18.582;2023-03-21T03:30:41;100014.13;;;8.17;97.98
48364;BME280;34170;54.364;18.582;2023-03-21T03:33:31;100013.22;;;7.97;99.91
48364;BME280;34170;54.364;18.582;2023-03-21T03:36:02;100010.31;;;8.10;98.89
48364;BME280;34170;54.364;18.582;2023-03-21T03:38:36;100016.16;;;7.94;99.47
48364;BME280;34170;54.364;18.582;2023-03-21T03:41:11;100003.56;;;7.75;100.00
48364;BME280;34170;54.364;18.582;2023-03-21T03:43:53;100015.66;;;7.69;100.00
48364;BME280;34170;54.364;18.582;2023-03-21T03:46:31;100017.09;;;7.52;100.00
48364;BME280;34170;54.364;18.582;2023-03-21T03:49:36;100010.81;;;7.63;100.00
48364;BME280;34170;54.364;18.582;2023-03-21T03:52:28;100011.03;;;7.50;100.00
48364;BME280;34170;54.364;18.582;2023-03-21T03:55:03;100014.88;;;7.57;100.00
48364;BME280;34170;54.364;18.582;2023-03-21T03:57:35;100016.84;;;7.55;100.00
48364;BME280;34170;54.364;18.582;2023-03-21T04:00:03;100020.69;;;7.62;100.00
48364;BME280;34170;54.364;18.582;2023-03-21T04:02:44;100011.66;;;7.63;100.00
48364;BME280;34170;54.364;18.582;2023-03-21T04:05:16;100018.75;;;7.74;100.00
48364;BME280;34170;54.364;18.582;2023-03-21T04:07:48;100006.53;;;7.51;100.00
48364;BME280;34170;54.364;18.582;2023-03-21T04:10:26;100017.91;;;7.22;100.00
48364;BME280;34170;54.364;18.582;2023-03-21T04:12:54;100015.09;;;7.23;100.00
48364;BME280;34170;54.364;18.582;2023-03-21T04:15:30;100014.31;;;7.12;100.00
48364;BME280;34170;54.364;18.582;2023-03-21T04:18:05;100022.25;;;7.02;100.00
48364;BME280;34170;54.364;18.582;2023-03-21T04:20:33;100017.34;;;6.86;100.00
48364;BME280;34170;54.364;18.582;2023-03-21T04:23:04;100010.56;;;6.82;100.00
48364;BME280;34170;54.364;18.582;2023-03-21T04:25:33;100036.44;;;6.81;100.00
48364;BME280;34170;54.364;18.582;2023-03-21T04:28:04;100034.75;;;6.80;100.00
48364;BME280;34170;54.364;18.582;2023-03-21T04:30:51;100026.59;;;6.82;100.00
48364;BME280;34170;54.364;18.582;2023-03-21T04:33:40;100040.13;;;7.01;100.00
48364;BME280;34170;54.364;18.582;2023-03-21T04:36:08;100029.44;;;7.22;100.00
48364;BME280;34170;54.364;18.582;2023-03-21T04:38:44;100044.41;;;7.46;100.00
48364;BME280;34170;54.364;18.582;2023-03-21T04:41:15;100054.19;;;7.57;100.00
48364;BME280;34170;54.364;18.582;2023-03-21T04:43:43;100050.84;;;7.64;100.00
48364;BME280;34170;54.364;18.582;2023-03-21T04:46:11;100050.00;;;7.64;100.00
48364;BME280;34170;54.364;18.582;2023-03-21T04:48:39;100049.53;;;7.38;100.00
48364;BME280;34170;54.364;18.582;2023-03-21T04:51:06;100049.78;;;7.56;100.00
48364;BME280;34170;54.364;18.582;2023-03-21T04:53:34;100044.66;;;7.64;100.00
48364;BME280;34170;54.364;18.582;2023-03-21T04:56:01;100048.75;;;7.26;100.00
48364;BME280;34170;54.364;18.582;2023-03-21T04:58:29;100049.78;;;7.56;100.00
48364;BME280;34170;54.364;18.582;2023-03-21T05:00:57;100058.75;;;7.66;98.98
48364;BME280;34170;54.364;18.582;2023-03-21T05:03:25;100042.69;;;7.66;97.52
48364;BME280;34170;54.364;18.582;2023-03-21T05:05:54;100056.91;;;7.45;98.61
48364;BME280;34170;54.364;18.582;2023-03-21T05:08:22;100058.88;;;7.43;97.24
48364;BME280;34170;54.364;18.582;2023-03-21T05:10:49;100058.34;;;7.29;96.64
48364;BME280;34170;54.364;18.582;2023-03-21T05:13:17;100055.09;;;7.25;98.37
48364;BME280;34170;54.364;18.582;2023-03-21T05:15:45;100058.91;;;7.11;97.34
48364;BME280;34170;54.364;18.582;2023-03-21T05:18:13;100062.97;;;7.05;99.04
48364;BME280;34170;54.364;18.582;2023-03-21T05:20:57;100064.03;;;7.14;97.86
48364;BME280;34170;54.364;18.582;2023-03-21T05:23:25;100064.94;;;7.24;97.76
48364;BME280;34170;54.364;18.582;2023-03-21T05:25:58;100072.25;;;7.43;95.41
48364;BME280;34170;54.364;18.582;2023-03-21T05:28:51;100060.19;;;7.28;94.33
48364;BME280;34170;54.364;18.582;2023-03-21T05:31:19;100077.94;;;7.71;93.99
48364;BME280;34170;54.364;18.582;2023-03-21T05:33:52;100074.13;;;7.74;91.61
48364;BME280;34170;54.364;18.582;2023-03-21T05:36:20;100079.19;;;7.98;91.41
48364;BME280;34170;54.364;18.582;2023-03-21T05:38:47;100086.19;;;7.89;91.39
48364;BME280;34170;54.364;18.582;2023-03-21T05:41:16;100070.69;;;8.14;91.27
48364;BME280;34170;54.364;18.582;2023-03-21T05:43:46;100090.66;;;8.10;91.73
48364;BME280;34170;54.364;18.582;2023-03-21T05:46:14;100072.03;;;7.77;91.50
48364;BME280;34170;54.364;18.582;2023-03-21T05:48:42;100091.44;;;7.70;93.13
48364;BME280;34170;54.364;18.582;2023-03-21T05:51:15;100082.75;;;7.77;93.11
48364;BME280;34170;54.364;18.582;2023-03-21T05:53:44;100093.88;;;8.04;91.59
48364;BME280;34170;54.364;18.582;2023-03-21T05:56:13;100090.34;;;8.34;89.43
48364;BME280;34170;54.364;18.582;2023-03-21T05:58:58;100092.53;;;8.19;87.89
48364;BME280;34170;54.364;18.582;2023-03-21T06:01:26;100095.94;;;8.21;89.82
48364;BME280;34170;54.364;18.582;2023-03-21T06:04:04;100088.41;;;8.46;87.54
48364;BME280;34170;54.364;18.582;2023-03-21T06:06:33;100080.59;;;8.83;85.13
48364;BME280;34170;54.364;18.582;2023-03-21T06:09:01;100099.09;;;8.86;83.61
48364;BME280;34170;54.364;18.582;2023-03-21T06:11:32;100103.75;;;8.84;84.14
48364;BME280;34170;54.364;18.582;2023-03-21T06:14:21;100111.25;;;8.90;84.62
48364;BME280;34170;54.364;18.582;2023-03-21T06:17:05;100102.53;;;8.98;83.84
48364;BME280;34170;54.364;18.582;2023-03-21T06:19:39;100112.25;;;8.99;81.46
48364;BME280;34170;54.364;18.582;2023-03-21T06:22:12;100111.69;;;9.05;82.94
48364;BME280;34170;54.364;18.582;2023-03-21T06:24:41;100106.63;;;9.41;80.58
48364;BME280;34170;54.364;18.582;2023-03-21T06:27:08;100117.91;;;9.64;79.74
48364;BME280;34170;54.364;18.582;2023-03-21T06:29:48;100124.41;;;9.52;79.57
48364;BME280;34170;54.364;18.582;2023-03-21T06:32:16;100124.69;;;9.68;79.29
48364;BME280;34170;54.364;18.582;2023-03-21T06:34:44;100129.19;;;9.78;78.11
48364;BME280;34170;54.364;18.582;2023-03-21T06:37:14;100139.50;;;9.53;80.85
48364;BME280;34170;54.364;18.582;2023-03-21T06:39:42;100139.28;;;10.13;76.26
48364;BME280;34170;54.364;18.582;2023-03-21T06:42:09;100139.56;;;10.10;76.21
48364;BME280;34170;54.364;18.582;2023-03-21T06:44:38;100151.09;;;9.73;78.19
48364;BME280;34170;54.364;18.582;2023-03-21T06:47:11;100145.03;;;9.12;79.79
48364;BME280;34170;54.364;18.582;2023-03-21T06:49:40;100150.97;;;9.55;79.45
48364;BME280;34170;54.364;18.582;2023-03-21T06:52:11;100148.97;;;8.99;82.13
48364;BME280;34170;54.364;18.582;2023-03-21T06:54:39;100148.38;;;9.05;82.38
48364;BME280;34170;54.364;18.582;2023-03-21T06:57:11;100149.97;;;9.76;78.62
48364;BME280;34170;54.364;18.582;2023-03-21T06:59:40;100152.63;;;9.95;77.92
48364;BME280;34170;54.364;18.582;2023-03-21T07:02:17;100141.69;;;10.06;76.06
48364;BME280;34170;54.364;18.582;2023-03-21T07:04:58;100157.94;;;10.15;75.33
48364;BME280;34170;54.364;18.582;2023-03-21T07:07:28;100150.16;;;10.21;74.44
48364;BME280;34170;54.364;18.582;2023-03-21T07:09:56;100149.66;;;9.98;76.18
48364;BME280;34170;54.364;18.582;2023-03-21T07:12:25;100169.34;;;10.26;75.95
48364;BME280;34170;54.364;18.582;2023-03-21T07:15:08;100157.06;;;10.24;75.08
48364;BME280;34170;54.364;18.582;2023-03-21T07:17:37;100165.63;;;9.90;76.64
48364;BME280;34170;54.364;18.582;2023-03-21T07:20:05;100163.53;;;9.84;76.35
48364;BME280;34170;54.364;18.582;2023-03-21T07:22:35;100179.19;;;9.88;77.32
48364;BME280;34170;54.364;18.582;2023-03-21T07:25:03;100171.56;;;9.93;76.47
48364;BME280;34170;54.364;18.582;2023-03-21T07:27:37;100169.53;;;10.15;75.07
48364;BME280;34170;54.364;18.582;2023-03-21T07:30:08;100168.19;;;9.91;75.33
48364;BME280;34170;54.364;18.582;2023-03-21T07:32:36;100171.03;;;9.80;75.74
48364;BME280;34170;54.364;18.582;2023-03-21T07:35:11;100163.38;;;9.85;76.68
48364;BME280;34170;54.364;18.582;2023-03-21T07:37:39;100185.78;;;10.33;73.82
48364;BME280;34170;54.364;18.582;2023-03-21T07:40:09;100168.06;;;10.50;73.71
48364;BME280;34170;54.364;18.582;2023-03-21T07:42:39;100170.81;;;10.68;72.49
48364;BME280;34170;54.364;18.582;2023-03-21T07:45:09;100180.75;;;10.58;71.90
48364;BME280;34170;54.364;18.582;2023-03-21T07:47:37;100167.38;;;10.38;73.18
48364;BME280;34170;54.364;18.582;2023-03-21T07:50:04;100179.09;;;10.37;73.35
48364;BME280;34170;54.364;18.582;2023-03-21T07:52:32;100177.03;;;10.31;74.37
48364;BME280;34170;54.364;18.582;2023-03-21T07:54:59;100180.75;;;10.58;72.47
48364;BME280;34170;54.364;18.582;2023-03-21T07:57:27;100179.81;;;10.77;72.19
48364;BME280;34170;54.364;18.582;2023-03-21T07:59:54;100185.94;;;10.97;71.50
48364;BME280;34170;54.364;18.582;2023-03-21T08:02:22;100192.88;;;11.17;70.09
48364;BME280;34170;54.364;18.582;2023-03-21T08:04:50;100196.59;;;10.88;70.58
48364;BME280;34170;54.364;18.582;2023-03-21T08:07:17;100185.22;;;10.67;69.82
48364;BME280;34170;54.364;18.582;2023-03-21T08:09:45;100185.34;;;10.38;72.39
48364;BME280;34170;54.364;18.582;2023-03-21T08:12:12;100191.03;;;10.72;70.56
48364;BME280;34170;54.364;18.582;2023-03-21T08:14:40;100201.22;;;10.96;70.84
48364;BME280;34170;54.364;18.582;2023-03-21T08:17:07;100211.53;;;11.01;69.68
48364;BME280;34170;54.364;18.582;2023-03-21T08:19:35;100203.19;;;11.04;69.57
48364;BME280;34170;54.364;18.582;2023-03-21T08:22:03;100202.16;;;11.05;67.90
48364;BME280;34170;54.364;18.582;2023-03-21T08:24:33;100207.94;;;11.10;69.43
48364;BME280;34170;54.364;18.582;2023-03-21T08:27:00;100219.75;;;11.27;67.44
48364;BME280;34170;54.364;18.582;2023-03-21T08:29:28;100218.59;;;11.30;67.32
48364;BME280;34170;54.364;18.582;2023-03-21T08:31:55;100210.78;;;11.36;67.13
48364;BME280;34170;54.364;18.582;2023-03-21T08:34:24;100219.38;;;11.40;65.06
48364;BME280;34170;54.364;18.582;2023-03-21T08:36:53;100234.25;;;11.62;65.29
48364;BME280;34170;54.364;18.582;2023-03-21T08:39:20;100240.34;;;11.18;67.00
48364;BME280;34170;54.364;18.582;2023-03-21T08:41:48;100229.13;;;10.95;68.38
48364;BME280;34170;54.364;18.582;2023-03-21T08:44:16;100232.56;;;11.43;65.99
48364;BME280;34170;54.364;18.582;2023-03-21T08:46:43;100233.50;;;11.70;64.97
48364;BME280;34170;54.364;18.582;2023-03-21T08:49:11;100237.25;;;11.77;64.06
48364;BME280;34170;54.364;18.582;2023-03-21T08:51:38;100233.50;;;12.06;63.71
48364;BME280;34170;54.364;18.582;2023-03-21T08:54:17;100245.16;;;11.78;63.70
48364;BME280;34170;54.364;18.582;2023-03-21T08:56:44;100237.97;;;11.97;64.10
48364;BME280;34170;54.364;18.582;2023-03-21T08:59:12;100241.38;;;12.51;60.66
48364;BME280;34170;54.364;18.582;2023-03-21T09:01:39;100239.91;;;12.57;59.25
48364;BME280;34170;54.364;18.582;2023-03-21T09:04:07;100245.34;;;12.65;58.11
48364;BME280;34170;54.364;18.582;2023-03-21T09:06:38;100241.06;;;12.28;59.18
48364;BME280;34170;54.364;18.582;2023-03-21T09:09:11;100242.59;;;12.57;59.04
48364;BME280;34170;54.364;18.582;2023-03-21T09:11:39;100244.28;;;12.84;56.33
48364;BME280;34170;54.364;18.582;2023-03-21T09:14:07;100240.38;;;14.29;53.34
48364;BME280;34170;54.364;18.582;2023-03-21T09:16:34;100243.06;;;13.64;52.65
48364;BME280;34170;54.364;18.582;2023-03-21T09:19:02;100241.03;;;13.66;53.24
48364;BME280;34170;54.364;18.582;2023-03-21T09:21:30;100248.03;;;13.34;53.51
48364;BME280;34170;54.364;18.582;2023-03-21T09:23:58;100256.81;;;12.41;56.26
48364;BME280;34170;54.364;18.582;2023-03-21T09:26:26;100264.69;;;12.52;57.18
48364;BME280;34170;54.364;18.582;2023-03-21T09:28:54;100260.50;;;12.14;57.63
48364;BME280;34170;54.364;18.582;2023-03-21T09:31:22;100256.81;;;11.79;59.36
48364;BME280;34170;54.364;18.582;2023-03-21T09:33:51;100257.41;;;11.73;59.10
48364;BME280;34170;54.364;18.582;2023-03-21T09:36:18;100256.19;;;11.85;59.47
48364;BME280;34170;54.364;18.582;2023-03-21T09:38:48;100249.56;;;11.61;59.71
48364;BME280;34170;54.364;18.582;2023-03-21T09:49:43;100257.56;;;11.89;58.40
48364;BME280;34170;54.364;18.582;2023-03-21T09:52:28;100264.59;;;12.18;57.82
48364;BME280;34170;54.364;18.582;2023-03-21T09:54:58;100252.66;;;11.67;57.90
48364;BME280;34170;54.364;18.582;2023-03-21T09:57:34;100273.16;;;11.95;58.71
48364;BME280;34170;54.364;18.582;2023-03-21T10:00:09;100256.81;;;12.15;58.75
48364;BME280;34170;54.364;18.582;2023-03-21T10:02:46;100256.72;;;12.25;58.69
48364;BME280;34170;54.364;18.582;2023-03-21T10:05:30;100248.28;;;12.46;58.23
48364;BME280;34170;54.364;18.582;2023-03-21T10:08:03;100262.81;;;12.53;56.13
48364;BME280;34170;54.364;18.582;2023-03-21T10:10:40;100265.81;;;12.50;56.79
48364;BME280;34170;54.364;18.582;2023-03-21T10:13:16;100256.25;;;12.55;56.06
48364;BME280;34170;54.364;18.582;2023-03-21T10:15:43;100262.22;;;12.41;55.23
48364;BME280;34170;54.364;18.582;2023-03-21T10:18:15;100270.97;;;12.61;53.10
48364;BME280;34170;54.364;18.582;2023-03-21T10:20:45;100270.69;;;12.99;51.63
48364;BME280;34170;54.364;18.582;2023-03-21T10:23:14;100259.34;;;13.38;49.12
48364;BME280;34170;54.364;18.582;2023-03-21T10:25:50;100266.66;;;13.53;49.31
48364;BME280;34170;54.364;18.582;2023-03-21T10:28:27;100273.09;;;13.52;49.63
48364;BME280;34170;54.364;18.582;2023-03-21T10:31:07;100273.16;;;13.85;48.75
48364;BME280;34170;54.364;18.582;2023-03-21T10:33:38;100268.84;;;13.07;49.75
48364;BME280;34170;54.364;18.582;2023-03-21T10:36:11;100273.97;;;13.61;49.95
48364;BME280;34170;54.364;18.582;2023-03-21T10:38:46;100273.31;;;13.76;48.53
48364;BME280;34170;54.364;18.582;2023-03-21T10:41:16;100263.13;;;13.53;48.59
48364;BME280;34170;54.364;18.582;2023-03-21T10:43:43;100273.06;;;13.44;48.26
48364;BME280;34170;54.364;18.582;2023-03-21T10:46:19;100284.63;;;13.87;48.04
48364;BME280;34170;54.364;18.582;2023-03-21T10:48:51;100273.00;;;13.95;48.32
48364;BME280;34170;54.364;18.582;2023-03-21T10:51:21;100280.63;;;13.91;47.35
48364;BME280;34170;54.364;18.582;2023-03-21T10:53:58;100275.38;;;14.23;47.36
48364;BME280;34170;54.364;18.582;2023-03-21T10:56:34;100271.47;;;14.34;46.65
48364;BME280;34170;54.364;18.582;2023-03-21T10:59:05;100281.19;;;13.52;48.04
48364;BME280;34170;54.364;18.582;2023-03-21T11:01:38;100276.19;;;14.64;45.86
48364;BME280;34170;54.364;18.582;2023-03-21T11:04:15;100263.66;;;15.28;44.17
48364;BME280;34170;54.364;18.582;2023-03-21T11:06:57;100270.19;;;16.42;41.41
48364;BME280;34170;54.364;18.582;2023-03-21T11:09:56;100257.78;;;15.78;42.31
48364;BME280;34170;54.364;18.582;2023-03-21T11:12:46;100253.50;;;14.82;43.93
48364;BME280;34170;54.364;18.582;2023-03-21T11:15:40;100265.38;;;14.23;45.30
48364;BME280;34170;54.364;18.582;2023-03-21T11:18:20;100252.53;;;14.34;45.66
48364;BME280;34170;54.364;18.582;2023-03-21T11:20:54;100262.16;;;13.79;46.20
48364;BME280;34170;54.364;18.582;2023-03-21T11:23:27;100266.91;;;14.01;46.27
48364;BME280;34170;54.364;18.582;2023-03-21T11:25:58;100274.00;;;13.86;45.82
48364;BME280;34170;54.364;18.582;2023-03-21T11:28:36;100271.81;;;13.81;45.90
48364;BME280;34170;54.364;18.582;2023-03-21T11:31:04;100265.03;;;14.67;44.81
48364;BME280;34170;54.364;18.582;2023-03-21T11:33:39;100264.63;;;14.95;43.12
48364;BME280;34170;54.364;18.582;2023-03-21T11:39:02;100263.69;;;14.47;44.60
48364;BME280;34170;54.364;18.582;2023-03-21T11:41:30;100262.16;;;14.61;44.08
48364;BME280;34170;54.364;18.582;2023-03-21T11:44:00;100257.78;;;14.35;43.98
48364;BME280;34170;54.364;18.582;2023-03-21T11:46:30;100255.56;;;14.30;44.90
48364;BME280;34170;54.364;18.582;2023-03-21T11:48:59;100248.78;;;14.76;43.33
48364;BME280;34170;54.364;18.582;2023-03-21T11:54:39;100261.19;;;14.29;43.94
48364;BME280;34170;54.364;18.582;2023-03-21T12:00:23;100257.94;;;14.09;44.45
48364;BME280;34170;54.364;18.582;2023-03-21T12:05:52;100250.69;;;12.57;49.84
48364;BME280;34170;54.364;18.582;2023-03-21T12:11:51;100256.13;;;12.13;53.30
48364;BME280;34170;54.364;18.582;2023-03-21T12:25:18;100246.97;;;11.70;57.12
48364;BME280;34170;54.364;18.582;2023-03-21T12:28:05;100252.03;;;11.73;58.53
48364;BME280;34170;54.364;18.582;2023-03-21T12:38:35;100221.28;;;10.17;64.37
48364;BME280;34170;54.364;18.582;2023-03-21T12:43:57;100220.03;;;10.11;66.47
48364;BME280;34170;54.364;18.582;2023-03-21T12:46:53;100213.72;;;10.60;64.98
48364;BME280;34170;54.364;18.582;2023-03-21T12:49:30;100217.03;;;11.09;62.67
48364;BME280;34170;54.364;18.582;2023-03-21T12:52:03;100222.69;;;10.78;63.79
48364;BME280;34170;54.364;18.582;2023-03-21T12:54:43;100222.38;;;10.54;64.98
48364;BME280;34170;54.364;18.582;2023-03-21T12:57:18;100220.66;;;10.90;64.45
48364;BME280;34170;54.364;18.582;2023-03-21T12:59:54;100215.13;;;9.78;68.83
48364;BME280;34170;54.364;18.582;2023-03-21T13:02:33;100215.66;;;10.10;67.40
48364;BME280;34170;54.364;18.582;2023-03-21T13:07:39;100217.94;;;9.76;69.07
48364;BME280;34170;54.364;18.582;2023-03-21T13:10:20;100215.53;;;9.92;68.25
48364;BME280;34170;54.364;18.582;2023-03-21T13:15:49;100201.84;;;10.53;64.70
48364;BME280;34170;54.364;18.582;2023-03-21T13:21:14;100209.28;;;10.21;67.47
48364;BME280;34170;54.364;18.582;2023-03-21T13:23:58;100197.22;;;10.35;66.69
48364;BME280;34170;54.364;18.582;2023-03-21T13:26:39;100202.06;;;10.22;66.31
48364;BME280;34170;54.364;18.582;2023-03-21T13:31:51;100198.91;;;10.26;67.58
48364;BME280;34170;54.364;18.582;2023-03-21T13:34:24;100202.34;;;10.28;67.78
48364;BME280;34170;54.364;18.582;2023-03-21T13:36:55;100207.75;;;10.09;68.21
48364;BME280;34170;54.364;18.582;2023-03-21T13:39:25;100199.84;;;9.29;72.57
48364;BME280;34170;54.364;18.582;2023-03-21T13:41:54;100192.38;;;9.62;71.63
48364;BME280;34170;54.364;18.582;2023-03-21T13:44:38;100197.00;;;9.41;73.24
48364;BME280;34170;54.364;18.582;2023-03-21T13:50:24;100194.63;;;9.38;73.16
48364;BME280;34170;54.364;18.582;2023-03-21T13:55:44;100174.38;;;9.04;74.76
48364;BME280;34170;54.364;18.582;2023-03-21T13:58:38;100181.75;;;9.22;74.47
48364;BME280;34170;54.364;18.582;2023-03-21T14:06:38;100173.34;;;8.45;79.97
48364;BME280;34170;54.364;18.582;2023-03-21T14:09:14;100179.94;;;8.72;78.78
48364;BME280;34170;54.364;18.582;2023-03-21T14:11:45;100181.00;;;9.00;76.85
48364;BME280;34170;54.364;18.582;2023-03-21T14:14:14;100174.38;;;8.94;76.64
48364;BME280;34170;54.364;18.582;2023-03-21T14:16:43;100179.59;;;9.06;76.14
48364;BME280;34170;54.364;18.582;2023-03-21T14:19:11;100161.41;;;9.09;75.81
48364;BME280;34170;54.364;18.582;2023-03-21T14:21:46;100165.13;;;8.77;77.55
48364;BME280;34170;54.364;18.582;2023-03-21T14:24:15;100171.88;;;8.72;78.44
48364;BME280;34170;54.364;18.582;2023-03-21T14:26:47;100163.50;;;8.55;77.59
48364;BME280;34170;54.364;18.582;2023-03-21T14:29:24;100166.09;;;8.67;78.17
48364;BME280;34170;54.364;18.582;2023-03-21T14:31:54;100162.94;;;9.02;76.81
48364;BME280;34170;54.364;18.582;2023-03-21T14:34:23;100162.53;;;9.07;75.95
48364;BME280;34170;54.364;18.582;2023-03-21T14:36:52;100171.03;;;9.22;74.78
48364;BME280;34170;54.364;18.582;2023-03-21T14:39:27;100165.53;;;9.23;75.18
48364;BME280;34170;54.364;18.582;2023-03-21T14:42:04;100167.69;;;8.79;77.18
48364;BME280;34170;54.364;18.582;2023-03-21T14:44:38;100155.31;;;9.17;75.47
48364;BME280;34170;54.364;18.582;2023-03-21T14:47:27;100166.50;;;9.22;74.35
48364;BME280;34170;54.364;18.582;2023-03-21T14:49:56;100158.59;;;9.11;75.07